Anderson, Alaska
Current Conditions -  °F | °C
As of 10:53 PM on Sunday 23 Nov 2014 (Local Time) from PANN Reporting Station
Clear Clear  
Wind Chill:   Ceiling: Unl
Heat Index:   Visibility: 10mi
Dew Point: -6°   Wind: 0mph
Humidity: 76%   Direction: NA
Pressure: 29.68"   Gusts: NA
Location:  64.34°N, 149.19°W
Report Text: PANN 240753Z AUTO 00000KT 10SM CLR M18/M21 A2968 RMK AO2 SLP065 T11781211 TSNO
Loading
Personal Weather Stations






























Interactive Weather Map New forecast layout! Learn more

10-Day Weather Forecast

Advertisements
Track Severe Weather on mobile